EmailTwitter


Surface observations / United Kingdom / EGTE (03839)

Regions: Quebec | Canada | USA | Europe | France | UK | Elsewhere
Station
Display
Info & Location for EGTE (03839) | Help decoding METAR

Weather Conditions observed on 2020/10/25 at 11:50 UTC at EXETER AIRPORT, UK (EGTE)

Sky conditions: few clouds.

Temperature: 13.0 Celsius.

Dewpoint: 8.0 Celsius.

Relative Humidity: 72%

Windchill Factor: 11.

Winds: Southwest at 22 km/h or 12 knots.

Mean Sea level Pressure: 99.50 kilopascals.

Horizontal visibility: 6.21 statute miles or 9.94 kilometers.

Coded METAR:

EGTE 251150Z 21012KT 9999 FEW025CB 13/08 Q0995=